Time;durP1;ratioP1;P1;durP2;ratioP2;P2;SDS_P1;SDS_P2;PMS_P1;PMS_P2;Temp;Humidity;BMP_temperature;BMP_pressure;BME280_temperature;BME280_humidity;BME280_pressure;Samples;Min_cycle;Max_cycle;Signal;HPM_P1;HPM_P2
2023/04/29 00:00:48;;;;;;;0.00;0.00;;;;;;;8.85;97.54;100533.28;6241490;22;20011;-73
2023/04/29 00:03:16;;;;;;;0.00;0.00;;;;;;;8.78;97.58;100521.75;6190713;22;20011;-72
2023/04/29 00:05:41;;;;;;;0.00;0.00;;;;;;;8.82;97.72;100527.50;6214406;22;20034;-72
2023/04/29 00:08:07;;;;;;;0.00;0.00;;;;;;;8.84;97.08;100537.09;6214469;22;20090;-72
2023/04/29 00:10:32;;;;;;;0.00;0.00;;;;;;;8.87;97.51;100536.56;6210013;22;20012;-72
2023/04/29 00:12:57;;;;;;;0.00;0.00;;;;;;;8.86;97.17;100534.94;6217454;22;20047;-71
2023/04/29 00:15:23;;;;;;;0.00;0.00;;;;;;;8.93;97.25;100544.84;6236686;22;20014;-72
2023/04/29 00:17:49;;;;;;;0.05;0.05;;;;;;;8.90;96.91;100540.72;6212486;22;20090;-73
2023/04/29 00:20:15;;;;;;;0.00;0.00;;;;;;;8.99;97.13;100549.28;6217200;22;20011;-72
2023/04/29 00:22:42;;;;;;;0.00;0.00;;;;;;;8.99;96.82;100552.00;6264727;22;20456;-72
2023/04/29 00:25:08;;;;;;;0.00;0.00;;;;;;;8.98;96.67;100542.16;6215062;22;20652;-73
2023/04/29 00:27:33;;;;;;;0.00;0.00;;;;;;;9.00;96.38;100545.50;6262662;22;20004;-72
2023/04/29 00:29:59;;;;;;;0.00;0.00;;;;;;;8.97;96.49;100535.91;6190872;22;20008;-73
2023/04/29 00:32:25;;;;;;;0.00;0.00;;;;;;;9.02;96.51;100556.97;6261749;22;20031;-73
2023/04/29 00:34:50;;;;;;;0.00;0.00;;;;;;;8.99;96.78;100554.75;6217077;22;20000;-74
2023/04/29 00:37:20;;;;;;;0.00;0.00;;;;;;;8.91;96.46;100551.38;6238928;22;20181;-73
2023/04/29 00:39:53;;;;;;;0.00;0.00;;;;;;;8.82;96.54;100544.72;6212767;22;21063;-73
2023/04/29 00:42:21;;;;;;;0.00;0.00;;;;;;;8.76;96.82;100540.25;6241778;22;20008;-73
2023/04/29 00:44:47;;;;;;;0.00;0.00;;;;;;;8.79;96.79;100544.38;6264656;22;20407;-72
2023/04/29 00:47:12;;;;;;;0.00;0.00;;;;;;;8.75;96.64;100544.06;6265895;22;20004;-73
2023/04/29 00:49:38;;;;;;;0.00;0.00;;;;;;;8.76;96.74;100540.25;6269907;22;20004;-72
2023/04/29 00:52:06;;;;;;;0.00;0.00;;;;;;;8.68;97.29;100533.31;6264408;22;20007;-74
2023/04/29 00:54:34;;;;;;;0.00;0.00;;;;;;;8.73;97.56;100535.28;6242261;22;20011;-73
2023/04/29 00:57:01;;;;;;;0.00;0.00;;;;;;;8.79;97.27;100534.31;6236133;22;20492;-73
2023/04/29 00:59:31;;;;;;;0.00;0.00;;;;;;;8.81;97.18;100542.22;6240351;22;20003;-74
2023/04/29 01:02:01;;;;;;;0.00;0.00;;;;;;;8.74;97.26;100536.94;6237376;22;20083;-73
2023/04/29 01:04:30;;;;;;;0.00;0.00;;;;;;;8.81;97.69;100548.50;6216754;22;20076;-73
2023/04/29 01:07:21;;;;;;;0.00;0.00;;;;;;;8.81;97.80;100548.50;6235706;22;20909;-73
2023/04/29 01:10:13;;;;;;;0.08;0.08;;;;;;;8.73;97.54;100548.91;6268017;22;20011;-73
2023/04/29 01:12:45;;;;;;;0.00;0.00;;;;;;;8.56;97.85;100536.16;6240266;22;20020;-73
2023/04/29 01:15:29;;;;;;;0.10;0.10;;;;;;;8.55;98.36;100550.84;6264817;22;20007;-72
2023/04/29 01:18:02;;;;;;;0.00;0.00;;;;;;;8.49;98.69;100546.41;6265271;22;20035;-72
2023/04/29 01:20:30;;;;;;;0.00;0.00;;;;;;;8.39;98.45;100540.75;6237030;22;20489;-73
2023/04/29 01:22:56;;;;;;;0.00;0.00;;;;;;;8.45;98.89;100539.78;6238709;22;20049;-73
2023/04/29 01:25:22;;;;;;;0.00;0.00;;;;;;;8.40;98.63;100542.41;6212297;22;20019;-73
2023/04/29 01:28:13;;;;;;;0.00;0.00;;;;;;;8.45;99.01;100556.13;6266402;22;20015;-73
2023/04/29 01:30:51;;;;;;;0.00;0.00;;;;;;;8.45;98.79;100563.50;6263735;22;20008;-72
2023/04/29 01:33:54;;;;;;;0.00;0.00;;;;;;;8.41;98.73;100549.53;6238740;22;20007;-73
2023/04/29 01:36:53;;;;;;;0.00;0.00;;;;;;;8.37;98.61;100560.09;6265653;22;20079;-73
2023/04/29 01:39:27;;;;;;;0.00;0.00;;;;;;;8.34;98.65;100565.22;6237166;22;20493;-73
2023/04/29 01:42:14;;;;;;;0.00;0.00;;;;;;;8.31;98.68;100563.81;6264804;22;20057;-72
2023/04/29 01:44:41;;;;;;;0.00;0.00;;;;;;;8.27;98.77;100553.66;6233660;22;20381;-71
2023/04/29 01:47:12;;;;;;;0.00;0.00;;;;;;;8.24;98.61;100559.59;6235514;22;20023;-72
2023/04/29 01:49:38;;;;;;;0.00;0.00;;;;;;;8.26;98.83;100562.88;6266273;22;20035;-72
2023/04/29 01:52:04;;;;;;;0.00;0.00;;;;;;;8.26;98.59;100560.16;6262827;22;20008;-73
2023/04/29 01:54:30;;;;;;;0.00;0.00;;;;;;;8.23;98.72;100550.56;6241050;22;20514;-72
2023/04/29 01:56:57;;;;;;;0.00;0.00;;;;;;;8.28;98.77;100550.69;6209987;22;20011;-72
2023/04/29 01:59:22;;;;;;;0.00;0.00;;;;;;;8.29;98.94;100551.50;6214814;22;20011;-73
2023/04/29 02:01:57;;;;;;;0.00;0.00;;;;;;;8.34;99.29;100559.75;6235708;22;20004;-72
2023/04/29 02:04:23;;;;;;;0.00;0.00;;;;;;;8.37;98.65;100567.44;6241358;22;20090;-72
2023/04/29 02:06:51;;;;;;;0.00;0.00;;;;;;;8.35;98.78;100555.94;6234380;22;20007;-72
2023/04/29 02:09:17;;;;;;;0.00;0.00;;;;;;;8.39;99.03;100570.72;6239775;22;20041;-73
2023/04/29 02:11:42;;;;;;;0.00;0.00;;;;;;;8.38;98.89;100569.06;6267040;22;20043;-73
2023/04/29 02:14:08;;;;;;;0.00;0.00;;;;;;;8.34;99.30;100565.22;6260557;22;20014;-72
2023/04/29 02:16:33;;;;;;;0.00;0.00;;;;;;;8.33;99.45;100569.00;6266041;22;20019;-73
2023/04/29 02:18:59;;;;;;;0.00;0.00;;;;;;;8.30;99.51;100564.06;6234110;22;20018;-73
2023/04/29 02:21:25;;;;;;;0.00;0.00;;;;;;;8.29;99.84;100567.84;6215472;22;20010;-72
2023/04/29 02:23:53;;;;;;;0.00;0.00;;;;;;;8.26;99.69;100566.44;6210956;22;20069;-72
2023/04/29 02:26:19;;;;;;;0.00;0.00;;;;;;;8.17;100.00;100563.28;6237782;22;20041;-72
2023/04/29 02:28:46;;;;;;;0.00;0.00;;;;;;;8.17;100.00;100563.28;6215073;22;20011;-72
2023/04/29 02:31:12;;;;;;;0.00;0.00;;;;;;;8.15;100.00;100562.72;6214905;22;20082;-72
2023/04/29 02:33:38;;;;;;;0.00;0.00;;;;;;;8.14;100.00;100558.34;6242894;22;20027;-72
2023/04/29 02:36:10;;;;;;;0.00;0.00;;;;;;;8.18;100.00;100564.13;6235014;22;20007;-72
2023/04/29 02:38:36;;;;;;;0.00;0.00;;;;;;;8.14;100.00;100565.69;6217964;22;20026;-72
2023/04/29 02:41:01;;;;;;;0.00;0.00;;;;;;;8.12;100.00;100562.38;6268135;22;20319;-73
2023/04/29 02:43:29;;;;;;;0.00;0.00;;;;;;;8.06;100.00;100557.91;6237833;22;20008;-73
2023/04/29 02:45:55;;;;;;;0.00;0.00;;;;;;;8.07;100.00;100571.28;6242535;22;20008;-73
2023/04/29 02:48:20;;;;;;;0.00;0.00;;;;;;;7.99;100.00;100558.09;6213030;22;20039;-72
2023/04/29 02:50:46;;;;;;;0.00;0.00;;;;;;;7.99;100.00;100558.91;6242362;22;20019;-74
2023/04/29 02:53:13;;;;;;;0.00;0.00;;;;;;;7.98;100.00;100562.69;6237807;22;20011;-74
2023/04/29 02:55:39;;;;;;;0.00;0.00;;;;;;;7.99;100.00;100571.69;6268481;22;20037;-73
2023/04/29 02:58:04;;;;;;;0.00;0.00;;;;;;;7.99;100.00;100572.53;6268902;22;20407;-73
2023/04/29 03:00:29;;;;;;;0.00;0.00;;;;;;;7.99;100.00;100574.44;6263859;22;20042;-73
2023/04/29 03:02:56;;;;;;;0.00;0.00;;;;;;;7.92;100.00;100563.69;6215346;22;20007;-72
2023/04/29 03:05:21;;;;;;;0.00;0.00;;;;;;;7.97;100.00;100573.81;6264624;22;20045;-73
2023/04/29 03:07:47;;;;;;;0.00;0.00;;;;;;;7.95;100.00;100570.53;6242013;22;20032;-73
2023/04/29 03:10:20;;;;;;;0.00;0.00;;;;;;;7.97;100.00;100582.84;6238038;22;20312;-72
2023/04/29 03:12:45;;;;;;;0.03;0.03;;;;;;;7.91;100.00;100580.25;6216073;22;20019;-73
2023/04/29 03:15:11;;;;;;;0.00;0.00;;;;;;;7.74;100.00;100572.03;6218845;22;20007;-74
2023/04/29 03:17:36;;;;;;;0.00;0.00;;;;;;;7.72;100.00;100585.09;6240741;22;20004;-74
2023/04/29 03:20:03;;;;;;;0.00;0.00;;;;;;;7.64;100.00;100583.59;6190421;22;20011;-73
2023/04/29 03:22:28;;;;;;;0.00;0.00;;;;;;;7.65;100.00;100585.22;6216124;22;20015;-73
2023/04/29 03:24:54;;;;;;;0.00;0.00;;;;;;;7.49;100.00;100560.44;6238365;22;20028;-73
2023/04/29 03:27:19;;;;;;;0.00;0.00;;;;;;;7.59;100.00;100583.47;6218470;22;20064;-73
2023/04/29 03:29:47;;;;;;;0.00;0.00;;;;;;;7.56;100.00;100587.50;6263839;22;20007;-72
2023/04/29 03:32:12;;;;;;;0.00;0.00;;;;;;;7.54;100.00;100588.81;6241515;22;20006;-73
2023/04/29 03:34:37;;;;;;;0.00;0.00;;;;;;;7.53;100.00;100592.59;6217479;22;20004;-73
2023/04/29 03:37:03;;;;;;;0.00;0.00;;;;;;;7.54;100.00;100603.25;6263748;22;20434;-72
2023/04/29 03:39:31;;;;;;;0.00;0.00;;;;;;;7.54;100.00;100599.72;6269142;22;20003;-73
2023/04/29 03:42:00;;;;;;;0.00;0.00;;;;;;;7.49;100.00;100595.81;6239684;22;20062;-74
2023/04/29 03:44:28;;;;;;;0.00;0.00;;;;;;;7.48;100.00;100602.31;6241961;22;20014;-73
2023/04/29 03:46:54;;;;;;;0.00;0.00;;;;;;;7.50;100.00;100613.81;6212968;22;20114;-73
2023/04/29 03:49:19;;;;;;;0.00;0.00;;;;;;;7.48;100.00;100615.91;6268535;22;20031;-73
2023/04/29 03:51:45;;;;;;;0.00;0.00;;;;;;;7.44;100.00;100617.47;6239196;22;20070;-73
2023/04/29 03:54:12;;;;;;;0.00;0.00;;;;;;;7.40;100.00;100627.16;6189185;22;20279;-73
2023/04/29 03:56:40;;;;;;;0.00;0.00;;;;;;;7.34;100.00;100628.13;6267749;22;20039;-73
2023/04/29 03:59:06;;;;;;;0.00;0.00;;;;;;;7.34;100.00;100618.09;6235498;22;20016;-73
2023/04/29 04:01:32;;;;;;;0.00;0.00;;;;;;;7.30;100.00;100618.78;6267680;22;20100;-73
2023/04/29 04:03:57;;;;;;;0.00;0.00;;;;;;;7.31;100.00;100629.44;6234992;22;20007;-72
2023/04/29 04:06:23;;;;;;;0.00;0.00;;;;;;;7.26;100.00;100632.06;6269576;22;20035;-72
2023/04/29 04:08:48;;;;;;;0.00;0.00;;;;;;;7.24;100.00;100639.66;6237548;22;20525;-72
2023/04/29 04:11:14;;;;;;;0.00;0.00;;;;;;;7.16;100.00;100638.09;6241087;22;20047;-72
2023/04/29 04:13:42;;;;;;;0.00;0.00;;;;;;;7.15;100.00;100646.50;6268590;22;20010;-72
2023/04/29 04:16:11;;;;;;;0.00;0.00;;;;;;;7.05;100.00;100641.66;6261607;22;20401;-73
2023/04/29 04:18:37;;;;;;;0.10;0.10;;;;;;;7.08;100.00;100648.50;6267462;22;20000;-72
2023/04/29 04:21:10;;;;;;;0.00;0.00;;;;;;;7.03;100.00;100649.22;6209951;22;20012;-72
2023/04/29 04:23:36;;;;;;;0.00;0.00;;;;;;;7.01;100.00;100651.38;6240293;22;20011;-72
2023/04/29 04:26:02;;;;;;;0.00;0.00;;;;;;;6.96;100.00;100656.66;6262873;22;20073;-72
2023/04/29 04:28:28;;;;;;;0.00;0.00;;;;;;;6.90;100.00;100654.91;6214720;22;20008;-72
2023/04/29 04:30:53;;;;;;;0.00;0.00;;;;;;;6.92;100.00;100660.91;6241702;22;20022;-72
2023/04/29 04:33:18;;;;;;;0.00;0.00;;;;;;;6.82;100.00;100654.19;6237120;22;20519;-73
2023/04/29 04:35:44;;;;;;;0.00;0.00;;;;;;;6.79;100.00;100660.09;6240873;22;20410;-73
2023/04/29 04:38:12;;;;;;;0.00;0.00;;;;;;;6.90;100.00;100665.78;6262009;22;20007;-71
2023/04/29 04:40:41;;;;;;;0.00;0.00;;;;;;;6.88;100.00;100663.28;6241942;22;20378;-73
2023/04/29 04:43:07;;;;;;;0.00;0.00;;;;;;;6.90;100.00;100665.78;6236580;22;20377;-72
2023/04/29 04:45:33;;;;;;;0.00;0.00;;;;;;;6.89;100.00;100664.13;6241305;22;20037;-72
2023/04/29 04:47:58;;;;;;;0.00;0.00;;;;;;;6.93;100.00;100673.47;6267061;22;20359;-72
2023/04/29 04:50:24;;;;;;;0.00;0.00;;;;;;;6.87;100.00;100674.41;6264663;22;20327;-72
2023/04/29 04:52:49;;;;;;;0.00;0.00;;;;;;;6.78;100.00;100669.31;6239037;22;20432;-73
2023/04/29 04:55:15;;;;;;;0.00;0.00;;;;;;;6.81;100.00;100682.41;6263263;22;20006;-72
2023/04/29 04:57:40;;;;;;;0.00;0.00;;;;;;;6.79;100.00;100684.56;6240287;22;20019;-73
2023/04/29 05:00:26;;;;;;;0.00;0.00;;;;;;;6.80;100.00;100688.09;6237051;22;20007;-72
2023/04/29 05:02:51;;;;;;;0.00;0.00;;;;;;;6.81;100.00;100690.56;6267453;22;20004;-71
2023/04/29 05:05:17;;;;;;;0.00;0.00;;;;;;;6.79;100.00;100686.44;6235882;22;20012;-73
2023/04/29 05:07:42;;;;;;;0.00;0.00;;;;;;;6.75;100.00;100686.09;6268203;22;20000;-72
2023/04/29 05:10:08;;;;;;;0.00;0.00;;;;;;;6.72;100.00;100692.00;6264031;22;20003;-72
2023/04/29 05:12:34;;;;;;;0.00;0.00;;;;;;;6.76;100.00;100692.34;6267199;22;20007;-73
2023/04/29 05:15:00;;;;;;;0.00;0.00;;;;;;;6.76;100.00;100698.63;6216341;22;20350;-72
2023/04/29 05:17:26;;;;;;;0.00;0.00;;;;;;;6.82;100.00;100702.28;6235686;22;20061;-73
2023/04/29 05:19:51;;;;;;;0.00;0.00;;;;;;;6.65;100.00;100669.53;6213298;22;20553;-72
2023/04/29 05:22:17;;;;;;;0.00;0.00;;;;;;;6.92;100.00;100704.41;6268947;22;20004;-72
2023/04/29 05:24:42;;;;;;;0.00;0.00;;;;;;;6.97;100.00;100712.72;6264487;22;20012;-73
2023/04/29 05:27:10;;;;;;;0.00;0.00;;;;;;;7.00;100.00;100706.81;6240540;22;20020;-74
2023/04/29 05:29:38;;;;;;;0.00;0.00;;;;;;;7.06;100.00;100708.56;6235036;22;20042;-72
2023/04/29 05:32:04;;;;;;;0.00;0.00;;;;;;;7.19;100.00;100706.69;6241297;22;20378;-73
2023/04/29 05:34:29;;;;;;;0.00;0.00;;;;;;;7.33;99.97;100708.13;6262140;22;20027;-72
2023/04/29 05:36:56;;;;;;;0.00;0.00;;;;;;;7.49;99.81;100701.94;6240933;22;20392;-73
2023/04/29 05:39:21;;;;;;;0.00;0.00;;;;;;;7.67;99.50;100708.31;6267592;22;20011;-72
2023/04/29 05:41:47;;;;;;;0.00;0.00;;;;;;;7.80;98.35;100708.03;6235233;22;20031;-73
2023/04/29 05:44:12;;;;;;;0.00;0.00;;;;;;;7.93;98.13;100716.97;6268314;22;20008;-72
2023/04/29 05:46:38;;;;;;;0.00;0.00;;;;;;;8.00;97.70;100706.78;6235585;22;20035;-71
2023/04/29 05:49:04;;;;;;;0.00;0.00;;;;;;;8.17;97.53;100726.72;6214346;22;20014;-72
2023/04/29 05:51:31;;;;;;;0.00;0.00;;;;;;;8.26;97.41;100720.91;6262612;22;20042;-72
2023/04/29 05:53:58;;;;;;;0.00;0.00;;;;;;;8.31;97.10;100719.13;6241280;22;20008;-72
2023/04/29 05:56:24;;;;;;;0.00;0.00;;;;;;;8.48;96.51;100719.16;6239901;22;20023;-71
2023/04/29 05:58:49;;;;;;;0.00;0.00;;;;;;;8.61;96.78;100728.13;6262515;22;20008;-72
2023/04/29 06:01:16;;;;;;;0.00;0.00;;;;;;;8.70;95.79;100730.22;6240639;22;20003;-72
2023/04/29 06:03:41;;;;;;;0.00;0.00;;;;;;;8.73;95.52;100727.00;6234925;22;20474;-72
2023/04/29 06:06:10;;;;;;;0.10;0.10;;;;;;;8.81;95.41;100733.94;6239877;22;20042;-73
2023/04/29 06:08:36;;;;;;;0.00;0.00;;;;;;;8.82;95.58;100719.22;6236545;22;20411;-72
2023/04/29 06:11:11;;;;;;;0.00;0.00;;;;;;;9.06;95.04;100730.78;6242338;22;20062;-72
2023/04/29 06:13:37;;;;;;;0.00;0.00;;;;;;;9.14;95.26;100726.84;6264120;22;20058;-73
2023/04/29 06:16:02;;;;;;;0.00;0.00;;;;;;;9.31;95.09;100742.34;6241924;22;20007;-72
2023/04/29 06:18:28;;;;;;;0.00;0.00;;;;;;;9.33;94.55;100732.00;6268670;22;20008;-72
2023/04/29 06:20:53;;;;;;;0.00;0.00;;;;;;;9.31;94.21;100720.53;6236772;22;20011;-72
2023/04/29 06:23:18;;;;;;;0.10;0.10;;;;;;;9.53;94.39;100753.31;6268286;22;20016;-72
2023/04/29 06:25:44;;;;;;;0.00;0.00;;;;;;;9.53;94.04;100750.59;6269330;22;20455;-73
2023/04/29 06:28:09;;;;;;;0.00;0.00;;;;;;;9.50;94.05;100743.72;6265291;22;20018;-74
2023/04/29 06:30:35;;;;;;;0.00;0.00;;;;;;;9.35;94.00;100732.59;6218266;22;20003;-74
2023/04/29 06:33:00;;;;;;;0.00;0.00;;;;;;;9.55;93.95;100748.44;6236201;22;20089;-72
2023/04/29 06:35:26;;;;;;;0.00;0.00;;;;;;;9.68;93.76;100741.78;6270233;22;20011;-74
2023/04/29 06:38:09;;;;;;;0.00;0.00;;;;;;;9.80;92.60;100728.84;6267330;22;20007;-77
2023/04/29 06:40:34;;;;;;;0.00;0.00;;;;;;;10.04;91.66;100734.88;6267517;22;20015;-73
2023/04/29 06:43:01;;;;;;;0.00;0.00;;;;;;;10.26;90.65;100737.59;6266266;22;20020;-75
2023/04/29 06:45:27;;;;;;;0.00;0.00;;;;;;;10.49;89.62;100752.09;6268937;22;20008;-73
2023/04/29 06:47:52;;;;;;;0.00;0.00;;;;;;;10.67;89.24;100764.56;6266979;22;20000;-74
2023/04/29 06:50:18;;;;;;;0.00;0.00;;;;;;;10.75;88.50;100761.38;6265799;22;20100;-74
2023/04/29 06:52:43;;;;;;;0.00;0.00;;;;;;;10.93;87.54;100771.09;6243035;22;20837;-75
2023/04/29 06:55:10;;;;;;;0.00;0.00;;;;;;;11.13;87.13;100775.13;6213421;22;20061;-74
2023/04/29 06:57:35;;;;;;;0.00;0.00;;;;;;;11.30;86.71;100772.22;6243564;22;20431;-73
2023/04/29 07:00:01;;;;;;;0.00;0.00;;;;;;;11.45;86.50;100777.00;6211438;22;20068;-72
2023/04/29 07:02:27;;;;;;;0.00;0.00;;;;;;;11.57;86.11;100772.16;6267652;22;20423;-73
2023/04/29 07:04:52;;;;;;;0.00;0.00;;;;;;;11.73;85.29;100775.81;6267706;22;20035;-73
2023/04/29 07:07:18;;;;;;;0.00;0.00;;;;;;;11.88;84.99;100783.28;6265609;22;20003;-73
2023/04/29 07:09:43;;;;;;;0.00;0.00;;;;;;;12.02;84.67;100789.97;6214975;22;20011;-73
2023/04/29 07:12:08;;;;;;;0.00;0.00;;;;;;;12.17;84.11;100786.47;6211115;22;20035;-74
2023/04/29 07:14:36;;;;;;;0.00;0.00;;;;;;;12.31;83.85;100786.81;6240443;22;20057;-72
2023/04/29 07:17:01;;;;;;;0.00;0.00;;;;;;;12.50;82.87;100789.03;6204263;22;20034;-73
2023/04/29 07:19:27;;;;;;;0.00;0.00;;;;;;;12.67;82.95;100794.31;6242930;22;20418;-74
2023/04/29 07:21:52;;;;;;;0.00;0.00;;;;;;;12.85;82.24;100795.69;6270283;22;20031;-72
2023/04/29 07:24:18;;;;;;;0.00;0.00;;;;;;;13.05;81.81;100795.75;6238702;22;20082;-73
2023/04/29 07:26:58;;;;;;;0.00;0.00;;;;;;;13.25;80.84;100794.09;6269399;22;20022;-78
2023/04/29 07:29:26;;;;;;;0.00;0.00;;;;;;;13.58;80.15;100786.38;6215229;22;20166;-79
2023/04/29 07:31:58;;;;;;;0.00;0.00;;;;;;;13.95;79.35;100790.72;6218180;22;20014;-80
2023/04/29 07:34:26;;;;;;;0.00;0.00;;;;;;;14.28;78.08;100793.88;6240649;22;20095;-79
2023/04/29 07:36:52;;;;;;;0.00;0.00;;;;;;;14.52;77.52;100787.72;6218070;22;20018;-79
2023/04/29 07:39:22;;;;;;;0.00;0.00;;;;;;;14.77;76.68;100806.03;6244301;22;20011;-78
2023/04/29 07:41:52;;;;;;;0.00;0.00;;;;;;;14.88;76.09;100801.28;6239813;22;20022;-77
2023/04/29 07:44:21;;;;;;;0.00;0.00;;;;;;;15.13;74.97;100803.84;6244518;22;20014;-79
2023/04/29 07:46:49;;;;;;;0.00;0.00;;;;;;;15.30;75.08;100786.09;6213908;22;20007;-79
2023/04/29 07:49:19;;;;;;;0.00;0.00;;;;;;;15.67;74.29;100795.69;6194547;22;20003;-79
2023/04/29 07:51:48;;;;;;;0.00;0.00;;;;;;;16.11;73.17;100794.66;6238922;22;20010;-79
2023/04/29 07:54:17;;;;;;;0.00;0.00;;;;;;;16.50;71.76;100807.41;6216950;22;20015;-78
2023/04/29 07:56:42;;;;;;;0.00;0.00;;;;;;;16.85;70.47;100809.94;6215803;22;20018;-78
2023/04/29 07:59:08;;;;;;;0.00;0.00;;;;;;;16.98;69.35;100805.66;6271331;22;20361;-78
2023/04/29 08:01:33;;;;;;;0.00;0.00;;;;;;;17.15;68.76;100805.13;6217867;22;20369;-78
2023/04/29 08:03:58;;;;;;;0.00;0.00;;;;;;;17.28;68.22;100799.63;6238825;22;20015;-78
2023/04/29 08:06:24;;;;;;;0.00;0.00;;;;;;;17.61;67.65;100813.44;6217899;22;20035;-78
2023/04/29 08:08:50;;;;;;;0.00;0.00;;;;;;;17.80;66.32;100809.81;6212890;22;20029;-78
2023/04/29 08:11:19;;;;;;;0.00;0.00;;;;;;;18.05;65.42;100805.75;6194288;22;20343;-78
2023/04/29 08:13:46;;;;;;;0.00;0.00;;;;;;;18.46;64.67;100821.50;6215759;22;20018;-78
2023/04/29 08:16:14;;;;;;;0.00;0.00;;;;;;;18.62;63.53;100830.28;6243694;22;20027;-78
2023/04/29 08:18:42;;;;;;;0.00;0.00;;;;;;;18.84;63.01;100825.94;6239882;22;20034;-79
2023/04/29 08:21:10;;;;;;;0.00;0.00;;;;;;;19.00;61.55;100810.63;6269506;22;20019;-78
2023/04/29 08:23:36;;;;;;;0.00;0.00;;;;;;;19.35;60.73;100830.28;6244731;22;20010;-78
2023/04/29 08:26:04;;;;;;;0.00;0.00;;;;;;;19.48;60.14;100834.13;6213573;22;20020;-79
2023/04/29 08:28:29;;;;;;;0.00;0.00;;;;;;;19.71;59.66;100832.16;6241983;22;19999;-78
2023/04/29 08:30:55;;;;;;;0.00;0.00;;;;;;;19.84;59.21;100837.94;6219651;22;20011;-79
2023/04/29 08:33:21;;;;;;;0.00;0.00;;;;;;;19.87;58.47;100831.75;6215983;22;20007;-78
2023/04/29 08:35:46;;;;;;;0.00;0.00;;;;;;;19.68;56.67;100841.13;6218457;22;20008;-78
2023/04/29 08:38:12;;;;;;;0.00;0.00;;;;;;;19.33;56.65;100838.13;6240249;22;20011;-79
2023/04/29 08:40:42;;;;;;;0.00;0.00;;;;;;;19.23;56.17;100849.44;6245096;22;20473;-78
2023/04/29 08:43:09;;;;;;;0.00;0.00;;;;;;;19.10;57.08;100833.66;6267723;22;20373;-77
2023/04/29 08:45:35;;;;;;;0.00;0.00;;;;;;;19.30;56.55;100852.59;6219408;22;20091;-79
2023/04/29 08:48:06;;;;;;;0.00;0.00;;;;;;;19.52;56.08;100846.22;6241965;22;20003;-78
2023/04/29 08:50:38;;;;;;;0.00;0.00;;;;;;;19.51;54.36;100830.72;6245539;22;20007;-78
2023/04/29 08:53:06;;;;;;;0.00;0.00;;;;;;;20.21;53.56;100856.06;6271386;22;20003;-78
2023/04/29 08:55:34;;;;;;;0.00;0.00;;;;;;;20.53;52.97;100839.31;6243319;22;20727;-78
2023/04/29 08:58:01;;;;;;;0.00;0.00;;;;;;;20.47;51.52;100835.06;6244083;22;20004;-79
2023/04/29 09:00:27;;;;;;;0.00;0.00;;;;;;;20.46;49.99;100866.75;6266487;22;20002;-78
2023/04/29 09:02:55;;;;;;;0.00;0.00;;;;;;;20.01;50.24;100856.66;6244984;22;20015;-78
2023/04/29 09:05:21;;;;;;;0.00;0.00;;;;;;;20.23;50.39;100858.53;6239234;22;20003;-78
2023/04/29 09:07:50;;;;;;;0.00;0.00;;;;;;;20.39;49.79;100867.25;6219367;22;20010;-78
2023/04/29 09:10:17;;;;;;;0.00;0.00;;;;;;;20.50;49.54;100870.53;6237519;22;20003;-79
2023/04/29 09:12:42;;;;;;;0.00;0.00;;;;;;;21.01;49.31;100855.13;6243758;22;20037;-78
2023/04/29 09:15:08;;;;;;;0.00;0.00;;;;;;;21.84;47.08;100878.28;6244945;22;20079;-80
2023/04/29 09:17:49;;;;;;;0.00;0.00;;;;;;;22.61;46.87;100883.09;6238277;22;20003;-78
2023/04/29 09:20:20;;;;;;;0.00;0.00;;;;;;;23.02;44.94;100889.88;6217899;22;20011;-79
2023/04/29 09:22:51;;;;;;;0.00;0.00;;;;;;;23.37;44.13;100884.03;6239823;22;20097;-80
2023/04/29 09:25:17;;;;;;;0.00;0.00;;;;;;;23.77;44.23;100883.50;6243071;22;20562;-79
2023/04/29 09:27:42;;;;;;;0.00;0.00;;;;;;;24.64;42.90;100878.84;6238318;22;19996;-79
2023/04/29 09:30:09;;;;;;;0.00;0.00;;;;;;;27.36;37.83;100881.94;6244677;22;20090;-77
2023/04/29 09:32:38;;;;;;;0.00;0.00;;;;;;;30.80;33.02;100868.03;6241851;22;20014;-78
2023/04/29 09:35:25;;;;;;;0.00;0.00;;;;;;;31.44;31.45;100883.66;6267236;22;20010;-78
2023/04/29 09:38:09;;;;;;;0.00;0.00;;;;;;;31.77;31.40;100887.41;6239109;22;20019;-79
2023/04/29 10:03:23;;;;;;;;;;;;;;;;;;;;;
2023/04/29 10:10:43;;;;;;;;;;;;;;;;;;;;;
2023/04/29 10:20:43;;;;;;;;;;;;;;;;;;;;;
2023/04/29 10:30:41;;;;;;;0.00;0.00;;;;;;;43.33;16.59;100882.13;5915037;24;20065;-78
2023/04/29 10:55:18;;;;;;;;;;;;;;;;;;;;;
2023/04/29 10:58:04;;;;;;;0.00;0.00;;;;;;;38.93;17.15;100867.16;6198933;23;20056;-76
2023/04/29 11:01:16;;;;;;;0.00;0.00;;;;;;;37.86;18.58;100865.91;6210278;23;19999;-78
2023/04/29 11:15:03;;;;;;;;;;;;;;;;;;;;;
2023/04/29 11:17:36;;;;;;;0.00;0.00;;;;;;;44.60;13.77;100846.53;5956380;23;20381;-78
2023/04/29 11:20:12;;;;;;;0.00;0.00;;;;;;;41.35;15.43;100843.47;6095803;23;20081;-78
2023/04/29 11:22:38;;;;;;;0.00;0.00;;;;;;;42.97;15.43;100849.31;6209325;23;20008;-77
2023/04/29 11:25:06;;;;;;;0.00;0.00;;;;;;;44.73;14.12;100860.69;6240918;23;20014;-78
2023/04/29 11:27:33;;;;;;;0.00;0.00;;;;;;;46.45;13.30;100851.25;6218112;22;20343;-79
2023/04/29 11:30:00;;;;;;;0.00;0.00;;;;;;;47.43;12.36;100855.38;6210689;23;20047;-80
2023/04/29 11:32:28;;;;;;;0.00;0.00;;;;;;;48.68;12.30;100853.88;6213091;23;20455;-79
2023/04/29 11:34:53;;;;;;;0.00;0.00;;;;;;;50.33;9.72;100857.38;6210299;23;20067;-80
2023/04/29 11:37:25;;;;;;;0.00;0.00;;;;;;;49.89;10.29;100838.75;6215092;23;20002;-77
2023/04/29 11:39:58;;;;;;;0.00;0.00;;;;;;;44.20;12.75;100818.97;6214581;23;20022;-78
2023/04/29 11:42:24;;;;;;;0.00;0.00;;;;;;;40.78;15.25;100829.22;6191745;23;20008;-77
2023/04/29 11:44:59;;;;;;;0.00;0.00;;;;;;;40.75;15.63;100817.91;6185400;23;20018;-79
2023/04/29 11:47:31;;;;;;;0.00;0.00;;;;;;;41.00;16.76;100794.81;6245215;23;20004;-78
2023/04/29 11:50:07;;;;;;;0.00;0.00;;;;;;;44.43;14.45;100831.00;6212424;23;20000;-79
2023/04/29 11:52:36;;;;;;;0.00;0.00;;;;;;;44.85;12.73;100832.84;6193080;23;20069;-82
2023/04/29 11:55:02;;;;;;;0.00;0.00;;;;;;;45.14;12.87;100825.50;6215496;23;20130;-80
2023/04/29 11:57:28;;;;;;;0.00;0.00;;;;;;;46.51;13.40;100805.84;6217232;23;20027;-79
2023/04/29 11:59:56;;;;;;;0.00;0.00;;;;;;;48.41;12.53;100809.78;6243685;23;20034;-82
2023/04/29 12:02:29;;;;;;;0.00;0.00;;;;;;;48.93;10.27;100828.06;6219122;23;20008;-80
2023/04/29 12:05:00;;;;;;;0.00;0.00;;;;;;;49.61;10.52;100825.91;6218340;23;20016;-80
2023/04/29 12:07:26;;;;;;;0.00;0.00;;;;;;;49.35;10.43;100814.59;6191952;23;20042;-79
2023/04/29 12:09:51;;;;;;;0.00;0.00;;;;;;;50.29;10.56;100814.00;6194815;23;20008;-80
2023/04/29 12:12:26;;;;;;;0.00;0.00;;;;;;;48.65;10.07;100802.72;6240241;23;20331;-77
2023/04/29 12:14:52;;;;;;;0.00;0.00;;;;;;;47.70;11.32;100813.41;6216106;23;20450;-78
2023/04/29 12:17:17;;;;;;;0.00;0.00;;;;;;;48.25;10.58;100813.41;6184245;23;20008;-78
2023/04/29 12:19:43;;;;;;;0.00;0.00;;;;;;;48.74;9.92;100807.47;6217536;23;20030;-77
2023/04/29 12:22:09;;;;;;;0.00;0.00;;;;;;;47.72;9.63;100813.72;6210783;23;20313;-76
2023/04/29 12:24:38;;;;;;;0.00;0.00;;;;;;;47.18;10.55;100822.28;6207286;23;20008;-77
2023/04/29 12:27:07;;;;;;;0.00;0.00;;;;;;;45.63;10.94;100809.47;6212250;23;20042;-77
2023/04/29 12:29:35;;;;;;;0.00;0.00;;;;;;;44.50;12.12;100801.78;6236950;22;20019;-76
2023/04/29 12:32:00;;;;;;;0.00;0.00;;;;;;;44.71;12.00;100805.59;6271307;22;20010;-77
2023/04/29 12:34:30;;;;;;;0.00;0.00;;;;;;;45.24;11.65;100806.78;6243112;22;20012;-76
2023/04/29 12:36:59;;;;;;;0.00;0.00;;;;;;;45.09;11.46;100800.22;6244430;22;20004;-78
2023/04/29 12:39:26;;;;;;;0.00;0.00;;;;;;;45.46;11.78;100805.53;6243822;22;20004;-76
2023/04/29 12:41:57;;;;;;;0.00;0.00;;;;;;;47.12;11.04;100812.75;6268076;22;20000;-76
2023/04/29 12:44:23;;;;;;;0.00;0.00;;;;;;;47.02;10.95;100804.28;6243846;22;20094;-77
2023/04/29 12:46:51;;;;;;;0.00;0.00;;;;;;;46.96;11.12;100800.50;6238791;22;20699;-76
2023/04/29 12:49:17;;;;;;;0.00;0.00;;;;;;;47.18;10.39;100787.53;6241964;22;20442;-77
2023/04/29 12:51:43;;;;;;;0.00;0.00;;;;;;;47.47;10.71;100800.13;6239019;22;20019;-76
2023/04/29 12:54:09;;;;;;;0.00;0.00;;;;;;;49.06;10.53;100799.28;6218401;22;20449;-77